Ride Results

Moyston CFA Endurance Ride (09-05-2014)
Ride distance: 80.4 km

Outcomes - Moyston CFA Endurance Ride (09-05-2014)
Division No. of Entries Retired / DNE Completed Withdrawn Ineligible V/O Percentage Completed
HW 8 - 5 1 - 2 62.50%
MW 19 - 16 2 - 1 84.21%
LW 17 - 14 - - 3 82.35%
JN 3 - 3 - - - 100.00%
Totals 47 - 38 3 - 6 80.85%
Results - Moyston CFA Endurance Ride (09-05-2014)
No. Rider Horse Place Time Leg Speeds Total
Km/Hr
H/R bpm
Heavyweight
751 Amanda Kettlewell Marneross Zameel 1 6:06:00 13.4, 12.9 13.18 38, 47, 53 (Avg:50)
135 Tamara Atkinson Mathoura McKinlay 2 (BC) 7:06:00 12.6, 10.2 11.32 46, 43, 44 (Avg:43)
750 Russell Gillingham Al Bahir 3 7:19:00 12.3, 9.9 10.99 28, 36, 50 (Avg:43)
255 Julie Lofts Ethereal Park Shadow Dancer 3 7:19:00 12.2, 9.9 10.99 39, 49, 51 (Avg:50)
46 Nigel Anderson Ithilien Elantari 5 8:04:00 11.2, 8.9 9.97 28, 35, 38 (Avg:36)
177 Vincent Comer Aloha Zabit Withdrawn L2 0:00:00 - - 36, 45, 60 (Avg:52)
7 Robert Punicki Kabneleh Sangiovese Lame L2 0:00:00 12.6, 10.2 - 32, 41, 49 (Avg:45)
268 Lainie Ray Razorback Prince Charming Lame L2 0:00:00 12.9, 11.5 - 36, 47, 48 (Avg:47)
Middleweight
42 Hans Peuker Marybank Celia 1 (BC) 5:19:00 16.6, 13.8 15.12 32, 39, 46 (Avg:42)
238 Kerri Kingston Mytkyina 2 5:49:00 15.2, 12.6 13.82 33, 43, 45 (Avg:44)
67 John Osboldstone Passion Park Simba 2 5:49:00 15.2, 12.6 13.82 38, 46, 50 (Avg:48)
755 Jenny Berg Oso Ellazandra 4 6:04:00 13.4, 13.0 13.25 34, 41, 48 (Avg:44)
160 Jo-Anne Francis Castlebar Guardian 5 6:33:00 12.6, 11.9 12.27 32, 40, 42 (Avg:41)
126 Wendy Riha Castlebar Chivas 5 6:33:00 13.1, 11.4 12.27 35, 38, 45 (Avg:41)
149 Bob Masters Sharwood Sinai 7 6:34:00 12.9, 11.5 12.24 30, 34, 37 (Avg:35)
758 Angela Nicholls Miss Pasha 8 7:05:00 13.0, 9.9 11.35 34, 48, 59 (Avg:53)
257 Tanya Beacham Creswick Magdaleenah 9 7:19:00 12.2, 9.9 10.99 33, 39, 46 (Avg:42)
181 Sharee Court Makaveli Soulja 10 7:36:00 12.1, 9.3 10.58 44, 42, 43 (Avg:42)
89 Sheryl Herbert Krishlah Maleeka 10 7:36:00 12.0, 9.4 10.58 36, 41, 52 (Avg:46)
152 Naomi O'Shaughnessy Castlebar Party Girl 10 7:36:00 12.1, 9.3 10.58 31, 42, 43 (Avg:42)
138 Emma Sellens San Ella Nader 10 7:36:00 12.0, 9.4 10.58 24, 41, 39 (Avg:40)
258 Helen Yeoman Burren-dah Jemilla 10 7:36:00 12.1, 9.3 10.58 28, 34, 40 (Avg:37)
103 Jess Welsh Pyrenees Pharaoh 15 8:41:00 10.2, 8.4 9.26 32, 36, 38 (Avg:37)
6 Julie Woods Ennerdale Omaha 15 8:41:00 10.2, 8.4 9.26 39, 42, 47 (Avg:44)
81 Tarryn Marshall Dara Park Alikhan Heart Rate L2 0:00:00 13.4, 11.9 - 42, 52, 65 (Avg:58)
745 Lucy Hobson Rafeeq Withdrawn L1 0:00:00 - - 34, 45 (Avg:45)
13 Linda Tanian Castlebar Gameboy Withdrawn P/R 0:00:00 - - 39
Lightweight
250 Kerry Alderton Mireen Yasmeera 1 (BC) 5:18:00 16.6, 13.8 15.17 34, 46, 48 (Avg:47)
91 Kim Noble Sahateyn Romeo 2 6:01:00 13.5, 13.1 13.36 32, 38, 42 (Avg:40)
752 Tracy-Lee Feltrin Illarak Evolve 3 6:04:00 13.3, 13.1 13.25 36, 39, 46 (Avg:42)
748 Rosamond Margesson Al Marah Gypsy Red 3 6:04:00 13.4, 13.0 13.25 36, 45, 52 (Avg:48)
11 Rohan Stanes Shuja Bint Melika 5 6:11:00 13.3, 12.6 13.00 34, 38, 46 (Avg:42)
245 Melinda Stevens Folly Foot Farm Grizabella 5 6:11:00 13.3, 12.6 13.00 31, 40, 46 (Avg:43)
744 Lindsay Hine Harmere Platinum Melas 7 6:21:00 13.3, 12.0 12.66 28, 45, 55 (Avg:50)
63 Pamela Cox Al-Marah Thunder Bay 8 6:33:00 13.1, 11.4 12.27 40, 44, 50 (Avg:47)
757 Michelle Cranston Cocoa Ace of Swords 9 7:16:00 11.7, 10.4 11.06 38, 41, 47 (Avg:44)
756 Gina Thompson Bellarine Rosebud 9 7:16:00 11.7, 10.4 11.06 34, 34, 41 (Avg:37)
747 Luisa Hoeer Kintamani Jaffah 11 7:58:00 12.4, 8.4 10.09 38, 41, 43 (Avg:42)
746 Lara Poynton Jon De Le Blitz 11 7:58:00 12.4, 8.4 10.09 38, 38, 49 (Avg:43)
3 Caley Rees Aratahnes Premier 13 8:04:00 11.2, 8.9 9.97 34, 49, 58 (Avg:53)
742 Stevie-lyn Oborne LadyBlaze 14 8:38:00 10.5, 8.2 9.31 38, 48, 49 (Avg:48)
154 Tegan Gillingham Ennerdale Marquis Lame L2 0:00:00 12.6, 10.2 - 44, 38, 42 (Avg:40)
61 Lois Sharam Musical Gully Carousel Heart Rate L2 0:00:00 12.2, 9.9 - 30, 51, 64 (Avg:57)
230 Rebecca Stoneman Pioneer Park Talieb Lame L2 0:00:00 13.1, 11.4 - 40, 43, 46 (Avg:44)
Junior
90 Alison Noble Warrawee Naaziq 1 (BC) 6:01:00 13.5, 13.1 13.36 40, 47, 48 (Avg:47)
225 Harrison Berg Jon De Le Axtec 2 6:05:00 13.3, 13.0 13.22 32, 38, 42 (Avg:40)
759 Bonnie Player Kato 3 7:16:00 11.7, 10.4 11.06 37, 43, 54 (Avg:48)